MET'MAP v2.0
soon released !

Expected late october,
this new version will be
more efficient, smarter,
and hosted on a brand new
server x3 powerfull...
...and still free !


Not compatible ?
Try the mobile version !

LOG IN : | Subscribe | Disclaimer | Who is Orbifly ? |
ICAO code :
Legend : VFR Marginal VFR IFR Intensive IFR Very Intensive IFR
Visi :
Ceiling :
>= 8 km
>= 3000ft
5 to 8 km
1000 to 3000 ft
1500m to 5 km
500 to 1000 ft
800 to 1500m
200 to 500 ft
< 800m
< 200 ft

METAR - LEGT Madrid Getafe - 01 Jun 2020 22:29 UTC
Data Sources :     NOAA   


- Airport Elevation : 2031 ft
- No reported NOTAMs.


LEGT - Madrid Getafe

Latest METAR recorded : 2015/08/11 08:00 LEGT 110800Z 19005KT CAVOK 28/13 Q1014
TAF TAF LEGT
Valid from the 01 at 18:00 until the 02 at 03:00 UTC


011700Z 0118/0203 VRB05KT CAVOK
PROB30
TEMPO 0118/0119 FEW045TCU

Source NOAA


MET'MAP, your aeronautical weather chart ! - Copyright ORBIFLY December 2007

Programming & Development : Alexandra Zaïnal
Co-Developer : Marc-Olivier Méhu
Technical & hardware support : Manuel Goepfert
Concept & Financing : Baudouin d'Aumeries